Time;durP1;ratioP1;P1;durP2;ratioP2;P2;SDS_P1;SDS_P2;PMS_P1;PMS_P2;Temp;Humidity;BMP_temperature;BMP_pressure;BME280_temperature;BME280_humidity;BME280_pressure;Samples;Min_cycle;Max_cycle;Signal;HPM_P1;HPM_P2
2022/04/25 00:01:27;;;;;;;1.42;0.40;;;20.50;99.90;;;;;;5110895;28;20039;-71
2022/04/25 00:03:54;;;;;;;1.50;0.10;;;20.50;99.90;;;;;;5099681;28;20034;-71
2022/04/25 00:06:22;;;;;;;0.38;0.20;;;20.50;99.90;;;;;;5092790;27;20027;-70
2022/04/25 00:08:50;;;;;;;0.70;0.20;;;20.40;99.90;;;;;;5106645;27;20063;-72
2022/04/25 00:11:17;;;;;;;0.88;0.20;;;20.50;99.90;;;;;;5096631;28;20035;-73
2022/04/25 00:13:45;;;;;;;0.13;0.10;;;20.50;99.90;;;;;;5105990;28;20375;-72
2022/04/25 00:16:13;;;;;;;1.40;0.20;;;20.50;99.90;;;;;;5101815;27;20020;-72
2022/04/25 00:18:41;;;;;;;0.60;0.20;;;20.40;99.90;;;;;;5115738;27;20495;-73
2022/04/25 00:21:08;;;;;;;0.10;0.10;;;20.60;99.90;;;;;;5106277;27;20664;-72
2022/04/25 00:23:35;;;;;;;0.68;0.20;;;20.70;99.90;;;;;;5106622;27;20035;-71
2022/04/25 00:26:04;;;;;;;0.13;0.10;;;20.80;99.90;;;;;;5110410;27;20035;-72
2022/04/25 00:28:32;;;;;;;1.27;0.75;;;21.10;99.90;;;;;;5101997;27;20062;-71
2022/04/25 00:30:59;;;;;;;1.48;0.20;;;21.10;99.90;;;;;;5105090;27;20416;-71
2022/04/25 00:33:29;;;;;;;0.70;0.40;;;21.20;99.90;;;;;;5108789;28;20801;-72
2022/04/25 00:35:56;;;;;;;1.17;0.20;;;21.30;99.90;;;;;;5107790;27;20047;-72
2022/04/25 00:38:23;;;;;;;0.40;0.15;;;21.30;99.90;;;;;;5107028;28;20454;-73
2022/04/25 00:40:51;;;;;;;0.65;0.30;;;21.30;99.90;;;;;;5104683;28;20061;-71
2022/04/25 00:43:18;;;;;;;0.40;0.10;;;21.40;99.90;;;;;;5131959;27;20019;-72
2022/04/25 00:45:45;;;;;;;0.30;0.20;;;21.10;99.90;;;;;;5108507;27;20031;-72
2022/04/25 00:48:13;;;;;;;0.52;0.30;;;21.30;99.90;;;;;;5106871;28;20498;-72
2022/04/25 00:50:40;;;;;;;1.45;0.20;;;21.50;99.90;;;;;;5110088;27;20031;-72
2022/04/25 00:53:09;;;;;;;0.98;0.28;;;21.80;99.90;;;;;;5109216;27;20031;-72
2022/04/25 00:55:41;;;;;;;0.82;0.30;;;22.40;99.90;;;;;;5104236;27;20083;-72
2022/04/25 00:58:09;;;;;;;0.30;0.20;;;23.10;99.90;;;;;;5103351;27;20027;-73
2022/04/25 01:00:37;;;;;;;0.43;0.20;;;24.10;99.90;;;;;;5107512;27;20063;-73
2022/04/25 01:03:05;;;;;;;1.13;0.20;;;24.80;99.90;;;;;;5095244;27;20024;-72
2022/04/25 01:05:33;;;;;;;0.68;0.45;;;25.50;99.90;;;;;;5102600;27;20453;-71
2022/04/25 01:08:00;;;;;;;0.20;0.10;;;26.00;99.50;;;;;;5107124;27;20020;-71
2022/04/25 01:10:29;;;;;;;0.32;0.10;;;25.50;99.00;;;;;;5107125;28;20122;-72
2022/04/25 01:12:56;;;;;;;1.65;0.20;;;24.80;99.90;;;;;;5107607;28;20231;-72
2022/04/25 01:15:23;;;;;;;0.57;0.20;;;24.60;99.90;;;;;;5107691;27;20046;-71
2022/04/25 01:17:51;;;;;;;2.15;0.43;;;24.50;99.90;;;;;;5107320;27;20036;-72
2022/04/25 01:20:18;;;;;;;1.75;0.30;;;24.50;99.90;;;;;;5094122;28;20023;-72
2022/04/25 01:28:52;;;;;;;0.35;0.10;;;24.90;99.90;;;;;;5112004;28;20100;-72
2022/04/25 01:31:19;;;;;;;0.20;0.08;;;24.90;99.90;;;;;;5108721;27;20055;-72
2022/04/25 01:33:46;;;;;;;0.70;0.10;;;24.70;99.90;;;;;;5110586;28;20508;-72
2022/04/25 01:36:25;;;;;;;0.80;0.20;;;24.50;99.90;;;;;;5106827;28;20428;-73
2022/04/25 01:38:53;;;;;;;0.10;0.10;;;24.30;99.90;;;;;;5115630;27;20049;-73
2022/04/25 01:41:21;;;;;;;0.10;0.10;;;24.20;99.90;;;;;;5123950;27;20102;-73
2022/04/25 01:43:48;;;;;;;1.55;0.13;;;24.00;99.90;;;;;;5110185;28;20027;-71
2022/04/25 01:46:16;;;;;;;0.25;0.10;;;23.70;99.90;;;;;;5108653;28;20504;-71
2022/04/25 01:48:43;;;;;;;0.63;0.30;;;23.60;99.90;;;;;;5111039;28;20054;-72
2022/04/25 01:51:11;;;;;;;0.10;0.10;;;24.00;99.90;;;;;;5098956;28;20026;-72
2022/04/25 01:53:39;;;;;;;0.10;0.10;;;23.90;99.90;;;;;;5102633;28;20132;-71
2022/04/25 01:56:07;;;;;;;0.20;0.10;;;23.70;99.90;;;;;;5109459;28;20051;-71
2022/04/25 01:58:35;;;;;;;0.50;0.20;;;23.60;99.90;;;;;;5131704;28;20038;-71
2022/04/25 02:01:07;;;;;;;0.38;0.10;;;23.50;99.90;;;;;;5127950;28;20038;-71
2022/04/25 02:03:35;;;;;;;0.38;0.35;;;23.40;99.90;;;;;;5111988;28;20028;-72
2022/04/25 02:06:02;;;;;;;0.30;0.20;;;23.20;99.90;;;;;;5087935;28;20028;-72
2022/04/25 02:08:32;;;;;;;0.30;0.30;;;23.00;99.90;;;;;;5102157;28;20106;-72
2022/04/25 02:13:45;;;;;;;1.10;0.20;;;22.80;99.90;;;;;;5098026;28;20127;-71
2022/04/25 02:16:13;;;;;;;0.85;0.10;;;22.80;99.90;;;;;;5110337;28;20116;-71
2022/04/25 02:18:40;;;;;;;1.85;0.10;;;22.70;99.90;;;;;;5109000;28;20473;-72
2022/04/25 02:21:08;;;;;;;0.95;0.20;;;22.60;99.90;;;;;;5110101;28;20103;-71
2022/04/25 02:23:36;;;;;;;1.27;0.50;;;22.50;99.90;;;;;;5124072;28;20456;-72
2022/04/25 02:26:05;;;;;;;0.20;0.15;;;22.50;99.90;;;;;;5108500;28;20047;-73
2022/04/25 02:28:34;;;;;;;0.68;0.38;;;22.50;99.90;;;;;;5125978;28;20039;-74
2022/04/25 02:31:04;;;;;;;0.35;0.10;;;22.40;99.90;;;;;;5109849;28;20024;-73
2022/04/25 02:33:36;;;;;;;0.63;0.35;;;22.30;99.90;;;;;;5125691;28;20036;-72
2022/04/25 02:36:08;;;;;;;1.08;0.30;;;22.40;99.90;;;;;;5108636;28;20035;-72
2022/04/25 02:38:37;;;;;;;0.30;0.20;;;22.60;99.90;;;;;;5117376;28;20067;-72
2022/04/25 02:41:04;;;;;;;0.88;0.30;;;22.70;99.90;;;;;;5109124;28;20108;-72
2022/04/25 02:43:43;;;;;;;0.57;0.20;;;22.70;99.90;;;;;;5105580;28;20026;-71
2022/04/25 02:46:13;;;;;;;0.82;0.40;;;22.90;99.90;;;;;;5108044;28;20620;-72
2022/04/25 02:48:42;;;;;;;0.38;0.25;;;23.20;99.90;;;;;;5110559;28;20051;-72
2022/04/25 02:51:11;;;;;;;0.85;0.30;;;23.30;99.90;;;;;;5108375;28;20036;-72
2022/04/25 02:53:39;;;;;;;0.57;0.20;;;23.00;99.90;;;;;;5096901;28;20032;-72
2022/04/25 02:56:07;;;;;;;0.40;0.20;;;22.80;99.90;;;;;;5102934;28;20039;-72
2022/04/25 02:58:37;;;;;;;0.30;0.20;;;22.40;99.90;;;;;;5110054;28;20027;-72
2022/04/25 03:01:05;;;;;;;1.35;0.32;;;22.30;99.90;;;;;;5104989;28;22293;-72
2022/04/25 03:03:35;;;;;;;0.40;0.20;;;22.10;99.90;;;;;;5102690;27;20032;-71
2022/04/25 03:06:05;;;;;;;0.90;0.30;;;22.00;99.90;;;;;;5128443;27;20034;-71
2022/04/25 03:08:34;;;;;;;0.68;0.30;;;21.90;99.90;;;;;;5127713;27;20034;-71
2022/04/25 03:11:04;;;;;;;0.73;0.22;;;21.70;99.90;;;;;;5129466;27;20062;-71
2022/04/25 03:13:34;;;;;;;0.25;0.25;;;21.60;99.90;;;;;;5132206;27;20050;-73
2022/04/25 03:16:03;;;;;;;0.40;0.40;;;21.60;99.90;;;;;;5114016;27;20160;-73
2022/04/25 03:18:31;;;;;;;1.33;0.28;;;21.60;99.90;;;;;;5106628;27;20019;-73
2022/04/25 03:20:59;;;;;;;0.52;0.30;;;21.60;99.90;;;;;;5106922;27;20091;-73
2022/04/25 03:23:27;;;;;;;2.90;1.05;;;21.50;99.90;;;;;;5097795;28;20039;-70
2022/04/25 03:25:55;;;;;;;0.65;0.35;;;21.40;99.90;;;;;;5110575;27;20442;-70
2022/04/25 03:28:22;;;;;;;1.35;0.50;;;21.40;99.90;;;;;;5098825;27;20031;-72
2022/04/25 03:30:49;;;;;;;2.25;0.30;;;21.50;99.90;;;;;;5096526;28;20028;-73
2022/04/25 03:33:19;;;;;;;0.45;0.20;;;21.50;99.90;;;;;;5132776;27;20059;-71
2022/04/25 03:35:49;;;;;;;2.42;0.38;;;21.60;99.90;;;;;;5103156;28;20032;-71
2022/04/25 03:38:21;;;;;;;0.50;0.30;;;21.70;99.90;;;;;;5110941;27;20028;-71
2022/04/25 03:40:48;;;;;;;0.50;0.30;;;21.90;99.90;;;;;;5107327;27;20032;-73
2022/04/25 03:43:17;;;;;;;0.32;0.20;;;22.00;99.90;;;;;;5113334;28;20028;-72
2022/04/25 03:45:44;;;;;;;0.30;0.20;;;22.00;99.90;;;;;;5113269;28;20031;-71
2022/04/25 03:48:12;;;;;;;0.55;0.20;;;22.00;99.90;;;;;;5127850;27;20466;-71
2022/04/25 03:50:39;;;;;;;1.05;0.13;;;21.80;99.90;;;;;;5117416;27;20492;-71
2022/04/25 03:53:11;;;;;;;2.95;0.20;;;21.80;99.90;;;;;;5111144;27;20069;-72
2022/04/25 03:58:24;;;;;;;0.60;0.30;;;21.50;99.90;;;;;;5093451;28;20085;-72
2022/04/25 04:00:52;;;;;;;4.32;0.40;;;21.40;99.90;;;;;;5110964;27;20110;-72
2022/04/25 04:03:20;;;;;;;0.60;0.30;;;21.30;99.90;;;;;;5116165;27;20026;-73
2022/04/25 04:05:48;;;;;;;3.90;0.32;;;21.20;99.90;;;;;;5113252;27;20036;-72
2022/04/25 04:08:16;;;;;;;0.77;0.38;;;21.00;99.90;;;;;;5119562;27;20024;-73
2022/04/25 04:10:43;;;;;;;0.40;0.30;;;21.00;99.90;;;;;;5110775;28;20610;-73
2022/04/25 04:13:11;;;;;;;2.85;0.82;;;20.90;99.90;;;;;;5111560;27;20051;-71
2022/04/25 04:15:38;;;;;;;1.55;0.47;;;20.90;99.90;;;;;;5115532;27;20124;-73
2022/04/25 04:18:06;;;;;;;1.67;0.55;;;21.00;99.90;;;;;;5123086;27;20015;-72
2022/04/25 04:20:34;;;;;;;1.17;0.47;;;21.10;99.90;;;;;;5104998;27;20389;-72
2022/04/25 04:23:01;;;;;;;1.25;0.50;;;21.00;99.90;;;;;;5107686;28;20019;-72
2022/04/25 04:25:29;;;;;;;0.65;0.43;;;20.90;99.90;;;;;;5103113;27;20047;-72
2022/04/25 04:27:57;;;;;;;0.40;0.20;;;20.90;99.90;;;;;;5090348;27;20493;-72
2022/04/25 04:30:24;;;;;;;2.90;0.70;;;20.90;99.90;;;;;;5092062;27;20040;-73
2022/04/25 04:32:53;;;;;;;2.35;0.40;;;20.90;99.90;;;;;;5091040;27;20080;-74
2022/04/25 04:38:06;;;;;;;2.45;0.40;;;21.10;99.90;;;;;;5093085;27;20145;-72
2022/04/25 04:40:34;;;;;;;0.20;0.20;;;21.40;99.90;;;;;;5092748;27;20043;-71
2022/04/25 04:43:03;;;;;;;1.17;0.40;;;21.60;99.90;;;;;;5092409;27;20046;-73
2022/04/25 04:45:30;;;;;;;0.77;0.50;;;21.80;99.90;;;;;;5089607;27;20027;-71
2022/04/25 04:47:58;;;;;;;1.70;0.50;;;21.90;99.90;;;;;;5094410;27;20043;-72
2022/04/25 04:50:27;;;;;;;2.38;0.63;;;22.00;99.90;;;;;;5091048;27;20386;-73
2022/04/25 04:52:59;;;;;;;0.30;0.20;;;22.20;99.90;;;;;;5092092;27;21978;-72
2022/04/25 04:55:27;;;;;;;1.33;0.40;;;22.40;99.90;;;;;;5090355;27;20036;-72
2022/04/25 04:57:58;;;;;;;1.30;0.30;;;22.30;99.90;;;;;;5092410;27;20043;-70
2022/04/25 05:00:27;;;;;;;0.95;0.30;;;22.20;99.90;;;;;;5091250;27;20560;-72
2022/04/25 05:02:54;;;;;;;2.47;0.40;;;22.00;99.90;;;;;;5089458;27;20039;-71
2022/04/25 05:05:21;;;;;;;1.73;0.30;;;22.00;99.90;;;;;;5091279;27;20414;-72
2022/04/25 05:07:49;;;;;;;2.15;0.35;;;22.10;99.90;;;;;;5088878;27;20028;-72
2022/04/25 05:10:16;;;;;;;0.65;0.20;;;22.10;99.90;;;;;;5090741;27;20023;-73
2022/04/25 05:12:55;;;;;;;0.85;0.20;;;22.00;99.90;;;;;;5092282;27;20562;-74
2022/04/25 05:15:23;;;;;;;1.20;0.38;;;21.90;99.90;;;;;;5090487;27;20063;-73
2022/04/25 05:17:53;;;;;;;1.13;0.30;;;21.70;99.90;;;;;;5090510;27;20032;-72
2022/04/25 05:20:22;;;;;;;0.80;0.40;;;21.60;99.90;;;;;;5086954;27;20039;-72
2022/04/25 05:22:51;;;;;;;2.22;0.40;;;21.60;99.90;;;;;;5092836;27;20035;-72
2022/04/25 05:25:21;;;;;;;1.48;0.43;;;21.50;99.90;;;;;;5088341;27;20110;-73
2022/04/25 05:27:50;;;;;;;2.25;0.60;;;21.50;99.90;;;;;;5091702;27;20019;-72
2022/04/25 05:30:19;;;;;;;3.90;0.73;;;21.40;99.90;;;;;;5090308;27;20135;-73
2022/04/25 05:32:52;;;;;;;2.55;0.57;;;21.50;99.90;;;;;;5089693;27;20545;-72
2022/04/25 05:35:21;;;;;;;1.80;0.50;;;21.40;99.90;;;;;;5091996;27;20043;-72
2022/04/25 05:37:49;;;;;;;0.63;0.38;;;21.30;99.90;;;;;;5092615;27;20098;-71
2022/04/25 05:40:17;;;;;;;1.67;0.43;;;21.20;99.90;;;;;;5089133;27;20024;-72
2022/04/25 05:42:46;;;;;;;0.95;0.63;;;21.10;99.90;;;;;;5091011;27;20383;-72
2022/04/25 05:45:15;;;;;;;0.60;0.20;;;21.10;99.90;;;;;;5091670;27;20482;-72
2022/04/25 05:47:43;;;;;;;1.38;0.50;;;21.00;99.90;;;;;;5091452;28;20112;-73
2022/04/25 05:52:57;;;;;;;3.83;0.75;;;21.10;99.90;;;;;;5090027;28;20058;-72
2022/04/25 05:55:25;;;;;;;2.67;0.40;;;21.20;99.90;;;;;;5090540;28;20163;-72
2022/04/25 05:57:53;;;;;;;0.93;0.40;;;21.10;99.90;;;;;;5090036;28;20016;-73
2022/04/25 06:00:20;;;;;;;1.20;0.30;;;21.20;99.90;;;;;;5090673;28;20031;-72
2022/04/25 06:02:48;;;;;;;0.93;0.32;;;21.20;99.90;;;;;;5089952;28;20034;-73
2022/04/25 06:05:16;;;;;;;1.25;0.68;;;21.30;99.90;;;;;;5092190;28;20023;-73
2022/04/25 06:07:45;;;;;;;1.23;0.40;;;21.40;99.90;;;;;;5091255;28;22007;-72
2022/04/25 06:10:17;;;;;;;0.43;0.28;;;21.50;99.90;;;;;;5089298;28;20083;-71
2022/04/25 06:12:50;;;;;;;2.55;0.40;;;21.50;99.90;;;;;;5091398;28;20031;-73
2022/04/25 06:15:21;;;;;;;0.40;0.30;;;21.50;99.90;;;;;;5089497;28;20103;-73
2022/04/25 06:17:48;;;;;;;3.55;0.75;;;21.60;99.90;;;;;;5090933;28;20069;-72
2022/04/25 06:20:16;;;;;;;1.95;0.20;;;21.70;99.90;;;;;;5088589;28;20046;-72
2022/04/25 06:22:53;;;;;;;1.30;0.43;;;21.70;99.90;;;;;;5089330;28;20024;-74
2022/04/25 06:25:20;;;;;;;3.58;0.88;;;21.60;99.90;;;;;;5090155;28;20402;-73
2022/04/25 06:27:48;;;;;;;1.63;0.77;;;21.60;99.90;;;;;;5090725;28;20676;-71
2022/04/25 06:30:15;;;;;;;1.35;1.05;;;21.60;99.90;;;;;;5089563;28;20489;-72
2022/04/25 06:32:42;;;;;;;0.65;0.40;;;21.60;99.90;;;;;;5089946;28;20512;-71
2022/04/25 06:35:11;;;;;;;1.45;0.25;;;21.70;99.90;;;;;;5089441;28;20481;-74
2022/04/25 06:37:38;;;;;;;1.08;0.73;;;21.80;99.90;;;;;;5090054;28;20036;-73
2022/04/25 06:40:07;;;;;;;0.85;0.20;;;21.70;99.90;;;;;;5090859;27;20027;-71
2022/04/25 06:42:34;;;;;;;0.52;0.28;;;21.60;99.90;;;;;;5093798;27;20035;-72
2022/04/25 06:45:02;;;;;;;1.10;0.20;;;21.60;99.90;;;;;;5091900;27;20047;-72
2022/04/25 06:47:29;;;;;;;1.50;0.17;;;21.60;99.90;;;;;;5092584;27;20093;-72
2022/04/25 06:49:56;;;;;;;2.63;0.38;;;21.60;99.90;;;;;;5079690;27;20024;-72
2022/04/25 06:52:24;;;;;;;0.60;0.20;;;21.60;99.90;;;;;;5092804;27;20042;-72
2022/04/25 06:54:52;;;;;;;0.40;0.20;;;21.60;99.90;;;;;;5094118;27;20130;-72
2022/04/25 06:57:19;;;;;;;0.93;0.20;;;21.50;99.90;;;;;;5093203;27;20131;-71
2022/04/25 06:59:46;;;;;;;1.20;0.40;;;21.40;99.90;;;;;;5089749;27;20120;-72
2022/04/25 07:02:15;;;;;;;1.15;0.40;;;21.20;99.90;;;;;;5092822;27;20070;-72
2022/04/25 07:04:43;;;;;;;1.83;0.50;;;21.00;99.90;;;;;;5094825;27;20032;-73
2022/04/25 07:07:11;;;;;;;0.77;0.50;;;20.80;99.90;;;;;;5093624;27;20572;-73
2022/04/25 07:09:38;;;;;;;1.60;0.40;;;20.70;99.90;;;;;;5088292;27;20032;-74
2022/04/25 07:12:06;;;;;;;1.52;0.70;;;20.40;99.90;;;;;;5092477;27;20050;-72
2022/04/25 07:14:33;;;;;;;2.13;0.80;;;20.30;99.90;;;;;;5092294;27;20067;-73
2022/04/25 07:17:03;;;;;;;0.82;0.60;;;20.10;99.90;;;;;;5093041;27;20450;-72
2022/04/25 07:19:31;;;;;;;0.85;0.50;;;20.00;99.90;;;;;;5093303;27;20390;-72
2022/04/25 07:30:15;;;;;;;4.53;2.05;;;19.70;99.90;;;;;;5093428;27;20062;-72
2022/04/25 07:32:43;;;;;;;2.83;2.25;;;19.60;99.90;;;;;;5092789;27;20023;-72
2022/04/25 07:35:10;;;;;;;5.60;2.67;;;19.50;99.90;;;;;;5090219;27;20130;-73
2022/04/25 07:37:39;;;;;;;4.35;2.58;;;19.50;99.90;;;;;;5090206;27;20031;-72
2022/04/25 07:40:08;;;;;;;4.72;2.35;;;19.40;99.90;;;;;;5087647;27;20088;-75
2022/04/25 07:42:38;;;;;;;3.70;2.15;;;19.40;99.90;;;;;;5091494;27;20019;-74
2022/04/25 07:45:07;;;;;;;4.40;1.95;;;19.40;99.90;;;;;;5084678;27;20111;-74
2022/04/25 07:47:42;;;;;;;2.47;1.85;;;19.30;99.90;;;;;;5090254;27;20127;-74
2022/04/25 07:50:11;;;;;;;3.47;2.00;;;19.30;99.90;;;;;;5085752;27;20026;-76
2022/04/25 07:52:38;;;;;;;4.30;2.28;;;19.20;99.90;;;;;;5090962;27;20032;-74
2022/04/25 07:55:07;;;;;;;1.63;1.30;;;19.20;99.90;;;;;;5089022;27;20040;-73
2022/04/25 07:57:36;;;;;;;4.90;2.85;;;19.10;99.90;;;;;;5091624;27;20028;-72
2022/04/25 08:00:07;;;;;;;4.75;3.47;;;19.10;99.90;;;;;;5089617;27;20038;-74
2022/04/25 08:02:34;;;;;;;2.58;2.13;;;19.00;99.90;;;;;;5092053;27;20359;-75
2022/04/25 08:05:02;;;;;;;6.75;3.03;;;19.00;99.90;;;;;;5088536;27;20038;-74
2022/04/25 08:07:30;;;;;;;4.70;2.33;;;19.00;99.90;;;;;;5085746;27;20096;-75
2022/04/25 08:09:57;;;;;;;1.95;1.27;;;18.90;99.90;;;;;;5088391;27;20028;-75
2022/04/25 08:18:01;;;;;;;1.80;1.10;;;18.80;99.90;;;;;;5084492;27;20034;-75
2022/04/25 08:20:30;;;;;;;3.70;1.52;;;18.70;99.90;;;;;;5083528;27;20051;-75
2022/04/25 08:22:58;;;;;;;2.45;1.33;;;18.70;99.90;;;;;;5085579;27;20299;-73
2022/04/25 08:25:27;;;;;;;3.58;2.20;;;18.70;99.90;;;;;;5085957;27;20028;-74
2022/04/25 08:27:54;;;;;;;1.98;1.08;;;18.60;99.90;;;;;;5084499;27;20032;-74
2022/04/25 08:30:22;;;;;;;1.55;1.25;;;18.50;99.90;;;;;;5082199;27;20031;-73
2022/04/25 08:32:49;;;;;;;2.33;1.02;;;18.50;99.90;;;;;;5082870;27;20031;-73
2022/04/25 08:35:17;;;;;;;1.77;0.95;;;18.50;99.90;;;;;;5084088;27;20134;-73
2022/04/25 08:37:44;;;;;;;4.20;1.13;;;18.50;99.90;;;;;;5089328;27;20031;-72
2022/04/25 08:40:12;;;;;;;4.03;1.40;;;18.40;99.90;;;;;;5089391;27;22672;-73
2022/04/25 08:42:40;;;;;;;2.85;1.45;;;18.40;99.90;;;;;;5092522;27;20024;-74
2022/04/25 08:45:09;;;;;;;2.85;2.00;;;18.40;99.90;;;;;;5090663;27;20076;-75
2022/04/25 08:47:57;;;;;;;6.10;2.92;;;18.40;99.90;;;;;;5089504;27;20050;-73
2022/04/25 08:50:26;;;;;;;6.47;2.90;;;18.40;99.90;;;;;;5084041;27;20051;-73
2022/04/25 08:52:58;;;;;;;4.13;2.65;;;18.40;99.90;;;;;;5082555;27;20039;-74
2022/04/25 08:55:29;;;;;;;3.28;2.35;;;18.40;99.90;;;;;;5080763;27;20027;-73
2022/04/25 08:57:59;;;;;;;3.80;2.25;;;18.40;99.90;;;;;;5066645;27;20048;-75
2022/04/25 09:00:27;;;;;;;3.22;2.17;;;18.40;99.90;;;;;;5081640;27;20537;-75
2022/04/25 09:02:55;;;;;;;3.47;2.25;;;18.40;99.90;;;;;;5084446;27;20119;-75
2022/04/25 09:05:22;;;;;;;3.38;2.03;;;18.40;99.90;;;;;;5082931;27;22124;-73
2022/04/25 09:07:50;;;;;;;3.33;2.08;;;18.40;99.90;;;;;;5083960;27;20029;-74
2022/04/25 09:10:21;;;;;;;4.18;2.45;;;18.40;99.90;;;;;;5082617;27;20572;-74
2022/04/25 09:12:49;;;;;;;4.82;3.65;;;18.40;99.90;;;;;;5083678;27;20031;-74
2022/04/25 09:15:22;;;;;;;9.02;4.45;;;18.40;99.90;;;;;;5086661;27;20080;-73
2022/04/25 09:17:50;;;;;;;16.80;10.65;;;18.50;99.90;;;;;;5092333;27;20016;-74
2022/04/25 09:20:19;;;;;;;24.60;18.98;;;18.50;99.90;;;;;;5087493;27;20172;-73
2022/04/25 09:22:47;;;;;;;11.55;9.35;;;18.50;99.90;;;;;;5083148;27;20027;-75
2022/04/25 09:25:16;;;;;;;13.15;9.45;;;18.40;99.90;;;;;;5085185;27;20105;-74
2022/04/25 09:27:47;;;;;;;8.57;7.03;;;18.40;99.90;;;;;;5089350;27;20482;-74
2022/04/25 09:30:24;;;;;;;11.88;7.25;;;18.30;99.90;;;;;;5089829;27;20090;-76
2022/04/25 09:32:53;;;;;;;7.57;5.05;;;18.30;99.90;;;;;;5087960;27;20576;-72
2022/04/25 09:35:37;;;;;;;6.63;4.70;;;18.40;99.90;;;;;;5086243;27;20043;-73
2022/04/25 09:38:06;;;;;;;6.90;4.47;;;18.30;99.90;;;;;;5090674;27;20028;-73
2022/04/25 09:40:35;;;;;;;6.82;4.63;;;18.30;99.90;;;;;;5091509;27;20038;-74
2022/04/25 09:43:22;;;;;;;6.35;4.00;;;18.20;99.90;;;;;;5091040;27;20051;-75
2022/04/25 09:46:00;;;;;;;7.10;4.63;;;18.20;99.90;;;;;;5089687;27;20629;-74
2022/04/25 09:48:28;;;;;;;8.02;5.07;;;18.10;99.90;;;;;;5087525;27;20032;-74
2022/04/25 09:51:07;;;;;;;9.80;5.60;;;18.00;99.90;;;;;;5088211;28;20024;-76
2022/04/25 09:53:45;;;;;;;8.63;5.53;;;17.90;99.90;;;;;;5090962;28;20044;-74
2022/04/25 09:56:18;;;;;;;5.22;3.75;;;17.80;99.90;;;;;;5087026;28;20055;-73
2022/04/25 09:59:15;;;;;;;4.43;2.67;;;17.70;99.90;;;;;;5090766;27;20031;-73
2022/04/25 10:01:44;;;;;;;3.88;1.73;;;17.70;99.90;;;;;;5090015;28;20032;-74
2022/04/25 10:04:38;;;;;;;5.32;2.30;;;17.70;99.90;;;;;;5090187;28;20043;-74
2022/04/25 10:07:07;;;;;;;3.40;1.90;;;17.60;99.90;;;;;;5088214;28;20032;-74
2022/04/25 10:09:36;;;;;;;5.15;3.10;;;17.60;99.90;;;;;;5090959;28;20036;-75
2022/04/25 10:12:06;;;;;;;5.97;3.42;;;17.60;99.90;;;;;;5092273;27;20486;-74
2022/04/25 10:14:33;;;;;;;4.38;3.10;;;17.50;99.90;;;;;;5095562;27;20039;-73
2022/04/25 10:17:01;;;;;;;3.80;2.70;;;17.50;99.90;;;;;;5092983;27;20028;-73
2022/04/25 10:19:32;;;;;;;5.47;2.53;;;17.40;99.90;;;;;;5093223;27;20615;-74
2022/04/25 10:22:00;;;;;;;2.22;1.73;;;17.40;99.90;;;;;;5090549;27;20050;-73
2022/04/25 10:24:27;;;;;;;2.25;1.88;;;17.30;99.90;;;;;;5089687;27;20039;-73
2022/04/25 10:26:57;;;;;;;4.05;2.03;;;17.20;99.90;;;;;;5092996;27;20088;-73
2022/04/25 10:29:34;;;;;;;2.90;1.63;;;17.20;99.90;;;;;;5092629;27;20105;-75
2022/04/25 10:32:04;;;;;;;3.72;1.35;;;17.20;99.90;;;;;;5094655;27;20039;-75
2022/04/25 10:34:59;;;;;;;4.03;1.30;;;17.10;99.90;;;;;;5094874;27;20055;-74
2022/04/25 10:37:42;;;;;;;3.67;1.00;;;17.10;99.90;;;;;;5091613;27;20050;-73
2022/04/25 10:40:13;;;;;;;3.55;1.42;;;17.00;99.90;;;;;;5087952;27;20035;-72
2022/04/25 10:46:04;;;;;;;4.20;1.17;;;16.90;99.90;;;;;;5055281;28;20132;-72
2022/04/25 10:49:04;;;;;;;2.78;1.42;;;16.80;99.90;;;;;;5090984;27;20976;-73
2022/04/25 10:51:40;;;;;;;3.17;1.77;;;16.80;99.90;;;;;;5094388;27;20027;-73
2022/04/25 10:54:08;;;;;;;6.55;1.65;;;16.70;99.90;;;;;;5092416;27;20042;-73
2022/04/25 10:56:36;;;;;;;2.83;1.55;;;16.60;99.90;;;;;;5093300;27;20646;-72
2022/04/25 10:59:22;;;;;;;1.67;1.05;;;16.60;99.90;;;;;;5090943;27;20039;-75
2022/04/25 11:01:51;;;;;;;2.83;0.90;;;16.60;99.90;;;;;;5092983;27;20027;-74
2022/04/25 11:04:20;;;;;;;4.50;1.42;;;16.50;99.90;;;;;;5092162;27;20043;-75
2022/04/25 11:07:23;;;;;;;2.72;1.25;;;16.50;99.90;;;;;;5093341;27;20107;-74
2022/04/25 11:09:52;;;;;;;1.60;1.17;;;16.50;99.90;;;;;;5093431;27;20111;-74
2022/04/25 11:12:19;;;;;;;2.50;1.65;;;16.50;99.90;;;;;;5093585;27;20027;-74
2022/04/25 11:15:03;;;;;;;1.60;1.30;;;16.50;99.90;;;;;;5091862;27;20043;-74
2022/04/25 11:17:30;;;;;;;3.05;1.63;;;16.50;99.90;;;;;;5092131;27;20035;-73
2022/04/25 11:19:58;;;;;;;4.18;1.33;;;16.50;99.90;;;;;;5093161;27;20538;-73
2022/04/25 11:22:37;;;;;;;3.22;1.95;;;16.50;99.90;;;;;;5089885;27;20032;-73
2022/04/25 11:25:26;;;;;;;3.72;1.60;;;16.50;99.90;;;;;;5088242;27;20023;-73
2022/04/25 11:28:13;;;;;;;4.38;1.42;;;16.50;99.90;;;;;;5093493;27;20668;-74
2022/04/25 11:30:41;;;;;;;6.13;1.55;;;16.50;99.90;;;;;;5093502;27;20031;-74
2022/04/25 11:33:13;;;;;;;4.43;1.30;;;16.50;99.90;;;;;;5091459;27;20113;-74
2022/04/25 11:35:43;;;;;;;2.90;1.80;;;16.40;99.90;;;;;;5088813;27;20040;-73
2022/04/25 11:38:10;;;;;;;4.20;1.33;;;16.40;99.90;;;;;;5089706;27;20378;-74
2022/04/25 11:40:39;;;;;;;4.70;2.30;;;16.40;99.90;;;;;;5091928;27;20028;-73
2022/04/25 11:43:06;;;;;;;3.25;2.25;;;16.40;99.90;;;;;;5093499;27;20477;-74
2022/04/25 11:45:33;;;;;;;1.92;1.33;;;16.40;99.90;;;;;;5094713;27;20144;-74
2022/04/25 11:48:01;;;;;;;5.80;2.45;;;16.40;99.90;;;;;;5096103;27;20789;-74
2022/04/25 11:50:29;;;;;;;3.08;1.98;;;16.30;99.90;;;;;;5090994;27;20035;-73
2022/04/25 11:52:56;;;;;;;4.78;1.88;;;16.20;99.90;;;;;;5091196;27;20029;-74
2022/04/25 11:55:35;;;;;;;2.88;1.80;;;16.20;99.90;;;;;;5090347;27;20546;-74
2022/04/25 11:58:03;;;;;;;5.15;2.08;;;16.00;99.90;;;;;;5085164;27;20411;-76
2022/04/25 12:00:31;;;;;;;2.65;1.70;;;16.00;99.90;;;;;;5087283;27;20028;-75
2022/04/25 12:02:58;;;;;;;3.03;1.70;;;15.90;99.90;;;;;;5090637;27;20244;-73
2022/04/25 12:05:31;;;;;;;4.88;2.50;;;15.90;99.90;;;;;;5085524;27;20033;-74
2022/04/25 12:16:18;;;;;;;2.95;1.92;;;15.70;99.90;;;;;;5085068;27;20081;-76
2022/04/25 12:18:52;;;;;;;2.13;1.58;;;15.60;99.90;;;;;;5082438;27;20031;-76
2022/04/25 12:21:21;;;;;;;3.25;1.77;;;15.70;99.90;;;;;;5083903;27;20031;-76
2022/04/25 12:23:54;;;;;;;3.47;1.83;;;15.70;99.90;;;;;;5083447;27;20028;-73
2022/04/25 12:26:23;;;;;;;4.22;2.20;;;15.60;99.90;;;;;;5084387;27;20473;-74
2022/04/25 12:28:55;;;;;;;4.05;1.48;;;15.60;99.90;;;;;;5083351;27;20468;-74
2022/04/25 12:31:22;;;;;;;3.60;2.25;;;15.60;99.90;;;;;;5084359;27;20031;-73
2022/04/25 12:33:50;;;;;;;3.47;1.80;;;15.60;99.90;;;;;;5082434;27;20044;-74
2022/04/25 12:36:28;;;;;;;5.72;1.83;;;15.60;99.90;;;;;;5085136;27;20385;-75
2022/04/25 12:39:00;;;;;;;3.15;1.40;;;15.60;99.90;;;;;;5082730;27;20137;-74
2022/04/25 12:41:31;;;;;;;3.75;1.55;;;15.60;99.90;;;;;;5082959;27;20031;-74
2022/04/25 12:44:15;;;;;;;5.30;2.00;;;15.60;99.90;;;;;;5087444;27;20028;-74
2022/04/25 12:46:42;;;;;;;4.45;1.63;;;15.60;99.90;;;;;;5083759;27;20115;-73
2022/04/25 12:49:22;;;;;;;5.15;2.13;;;15.60;99.90;;;;;;5082607;27;20032;-73
2022/04/25 12:51:52;;;;;;;4.13;2.25;;;15.60;99.90;;;;;;5082522;27;20042;-74
2022/04/25 12:54:22;;;;;;;5.25;2.75;;;15.60;99.90;;;;;;5082429;27;20042;-75
2022/04/25 12:56:55;;;;;;;8.18;3.67;;;15.60;99.90;;;;;;5082968;27;20051;-73
2022/04/25 12:59:30;;;;;;;5.93;2.58;;;15.60;99.90;;;;;;5082116;27;20511;-73
2022/04/25 13:02:01;;;;;;;4.33;2.60;;;15.60;99.90;;;;;;5083300;27;20133;-73
2022/04/25 13:04:29;;;;;;;3.75;2.15;;;15.70;99.90;;;;;;5083167;27;20100;-74
2022/04/25 13:06:56;;;;;;;5.15;2.78;;;15.60;99.90;;;;;;5083881;27;20024;-73
2022/04/25 13:09:23;;;;;;;4.00;2.70;;;15.70;99.90;;;;;;5082336;27;20043;-74
2022/04/25 13:11:51;;;;;;;5.60;2.80;;;15.70;99.90;;;;;;5083629;27;20052;-73
2022/04/25 13:14:18;;;;;;;9.43;5.32;;;15.70;99.90;;;;;;5080524;27;20038;-73
2022/04/25 13:16:45;;;;;;;10.32;5.80;;;15.70;99.90;;;;;;5083324;27;20051;-73
2022/04/25 13:19:13;;;;;;;8.90;3.60;;;15.70;99.90;;;;;;5082423;27;20034;-74
2022/04/25 13:21:42;;;;;;;8.93;5.30;;;15.60;99.90;;;;;;5084401;27;20075;-75
2022/04/25 13:24:10;;;;;;;9.23;6.40;;;15.60;99.90;;;;;;5089302;27;20037;-75
2022/04/25 13:26:37;;;;;;;17.40;8.63;;;15.60;99.90;;;;;;5088287;27;20082;-75
2022/04/25 13:29:04;;;;;;;8.57;5.75;;;15.60;99.90;;;;;;5090053;27;20043;-74
2022/04/25 13:31:32;;;;;;;7.72;5.47;;;15.60;99.90;;;;;;5091912;27;20036;-73
2022/04/25 13:33:59;;;;;;;7.45;4.78;;;15.50;99.90;;;;;;5087142;27;20040;-74
2022/04/25 13:36:27;;;;;;;7.88;5.63;;;15.60;99.90;;;;;;5085698;27;20675;-74
2022/04/25 13:38:55;;;;;;;7.32;4.32;;;15.50;99.90;;;;;;5089243;27;22436;-75
2022/04/25 13:41:23;;;;;;;9.18;3.65;;;15.60;99.90;;;;;;5090412;27;20031;-74